Flight Track Log - Related Links

Times and Time Zones

All times are in EDT time to prevent confusion due to time zone crossing. See the N682RW flight status page for this flight to view local times or setup timezone preferences in your user account.

Time Position Orientation Groundspeed Altitude Reporting Facility
EDT Latitude Longitude Course Direction KTS MPH feet Rate Location/Type
Fri 02:17:08 AM 41.5106 -81.7006 297° West 179 206 1,300  Level Cleveland Center
Fri 02:18:15 AM 41.5408 -81.7817 297° West 284 327 5,800 3,938 Climbing Cleveland Center
Fri 02:19:16 AM 41.6156 -81.8247 337° Northwest 318 366 9,700 3,124 Climbing Cleveland Center
Fri 02:20:16 AM 41.6186 -81.9247 272° West 307 353 12,100 1,140 Climbing Cleveland Center
Fri 02:21:17 AM 41.6131 -82.0411 266° West 331 381 12,000 -41 Descending Cleveland Center
Fri 02:22:43 AM 41.6397 -82.2169 282° West 338 389 12,000  Level Cleveland Center
Fri 02:23:43 AM 41.6589 -82.3369 282° West 333 383 12,000  Level Cleveland Center
Fri 02:24:24 AM 41.6703 -82.4150 281° West 330 380 12,000  Level Cleveland Center
Fri 02:25:24 AM 41.6889 -82.5350 282° West 325 374 12,000  Level Cleveland Center
Fri 02:26:25 AM 41.7075 -82.6636 281° West 325 374 12,000  Level Cleveland Center
Fri 02:27:26 AM 41.7303 -82.7811 285° West 334 384 12,000  Level Cleveland Center
Fri 02:28:26 AM 41.7994 -82.8728 315° West 356 410 12,000  Level Cleveland Center
Fri 02:29:27 AM 41.8728 -82.9592 319° Northwest 348 400 12,000 -149 Level Cleveland Center
Fri 02:30:27 AM 41.9547 -83.0236 330° Northwest 355 409 11,700 -843 Descending Cleveland Center
Fri 02:31:28 AM 42.0439 -83.0494 348° North 320 368 10,300 -2,066 Descending Cleveland Center
Fri 02:32:29 AM 42.1267 -83.0750 347° North 293 337 7,500 -2,777 Descending Cleveland Center
Fri 02:33:29 AM 42.2011 -83.1031 344° North 273 314 4,700 -1,736 Descending Cleveland Center
Fri 02:34:30 AM 42.2694 -83.1311 343° North 235 270 4,000 -446 Descending Cleveland Center
Fri 02:35:30 AM 42.3272 -83.1531 344° North 217 250 3,800 -446 Descending Cleveland Center
Fri 02:36:31 AM 42.3489 -83.2072 298° West 188 216 3,100 -443 Descending Cleveland Center
Fri 02:37:32 AM 42.3228 -83.2622 237° Southwest 168 193 2,900 -446 Descending Cleveland Center
Fri 02:38:32 AM 42.2844 -83.2861 205° Southwest 133 153 2,200 -694 Descending Cleveland Center
Fri 02:39:33 AM 42.2550 -83.3072 208° Southwest 123 142 1,500 -639 Descending Cleveland Center
Fri 02:40:34 AM 42.2253 -83.3311 211° Southwest 124 143 900 -590 Descending Cleveland Center

Login

Don't have an account? Register now (free) for customized features, flight alerts, and more!